sensor_id;sensor_type;location;lat;lon;timestamp;temperature;humidity
49148;DHT22;41980;45.550;12.070;2023-06-24T00:05:52;22.40;61.00
49148;DHT22;41980;45.550;12.070;2023-06-24T00:11:56;22.30;61.10
49148;DHT22;41980;45.550;12.070;2023-06-24T00:18:00;22.30;61.00
49148;DHT22;41980;45.550;12.070;2023-06-24T00:24:07;22.40;61.10
49148;DHT22;41980;45.550;12.070;2023-06-24T00:30:11;22.40;61.00
49148;DHT22;41980;45.550;12.070;2023-06-24T00:36:13;22.50;61.40
49148;DHT22;41980;45.550;12.070;2023-06-24T00:42:15;22.50;61.30
49148;DHT22;41980;45.550;12.070;2023-06-24T00:48:17;22.40;61.90
49148;DHT22;41980;45.550;12.070;2023-06-24T00:54:19;22.20;61.50
49148;DHT22;41980;45.550;12.070;2023-06-24T01:00:22;22.20;61.60
49148;DHT22;41980;45.550;12.070;2023-06-24T01:06:25;22.20;61.70
49148;DHT22;41980;45.550;12.070;2023-06-24T01:12:31;22.10;61.80
49148;DHT22;41980;45.550;12.070;2023-06-24T01:31:03;22.00;62.80
49148;DHT22;41980;45.550;12.070;2023-06-24T01:43:15;21.90;63.00
49148;DHT22;41980;45.550;12.070;2023-06-24T01:49:21;21.80;63.50
49148;DHT22;41980;45.550;12.070;2023-06-24T01:55:26;21.70;64.10
49148;DHT22;41980;45.550;12.070;2023-06-24T02:01:32;21.50;64.00
49148;DHT22;41980;45.550;12.070;2023-06-24T02:07:37;21.50;64.30
49148;DHT22;41980;45.550;12.070;2023-06-24T02:13:43;21.40;64.70
49148;DHT22;41980;45.550;12.070;2023-06-24T02:19:51;21.40;65.20
49148;DHT22;41980;45.550;12.070;2023-06-24T02:25:55;21.30;65.00
49148;DHT22;41980;45.550;12.070;2023-06-24T02:31:58;21.20;65.00
49148;DHT22;41980;45.550;12.070;2023-06-24T02:38:01;21.10;65.20
49148;DHT22;41980;45.550;12.070;2023-06-24T02:44:05;21.10;65.20
49148;DHT22;41980;45.550;12.070;2023-06-24T02:50:08;21.10;65.10
49148;DHT22;41980;45.550;12.070;2023-06-24T02:56:12;21.20;65.30
49148;DHT22;41980;45.550;12.070;2023-06-24T03:02:17;21.20;64.90
49148;DHT22;41980;45.550;12.070;2023-06-24T03:08:20;21.30;64.90
49148;DHT22;41980;45.550;12.070;2023-06-24T03:14:25;21.20;64.90
49148;DHT22;41980;45.550;12.070;2023-06-24T03:20:28;21.30;64.90
49148;DHT22;41980;45.550;12.070;2023-06-24T03:26:44;21.30;64.70
49148;DHT22;41980;45.550;12.070;2023-06-24T03:32:49;21.30;64.90
49148;DHT22;41980;45.550;12.070;2023-06-24T03:38:52;21.30;65.20
49148;DHT22;41980;45.550;12.070;2023-06-24T03:44:55;21.20;65.40
49148;DHT22;41980;45.550;12.070;2023-06-24T03:50:57;21.30;65.40
49148;DHT22;41980;45.550;12.070;2023-06-24T03:57:00;21.30;65.70
49148;DHT22;41980;45.550;12.070;2023-06-24T04:03:02;21.50;65.20
49148;DHT22;41980;45.550;12.070;2023-06-24T04:09:04;21.50;65.40
49148;DHT22;41980;45.550;12.070;2023-06-24T04:15:08;21.70;65.10
49148;DHT22;41980;45.550;12.070;2023-06-24T04:21:11;22.00;65.00
49148;DHT22;41980;45.550;12.070;2023-06-24T04:27:13;22.20;64.10
49148;DHT22;41980;45.550;12.070;2023-06-24T04:33:15;22.50;64.10
49148;DHT22;41980;45.550;12.070;2023-06-24T04:39:17;22.90;63.70
49148;DHT22;41980;45.550;12.070;2023-06-24T04:45:19;23.30;63.60
49148;DHT22;41980;45.550;12.070;2023-06-24T04:51:20;23.70;63.50
49148;DHT22;41980;45.550;12.070;2023-06-24T04:57:26;24.40;63.40
49148;DHT22;41980;45.550;12.070;2023-06-24T05:03:28;25.90;62.70
49148;DHT22;41980;45.550;12.070;2023-06-24T05:09:30;27.90;60.00
49148;DHT22;41980;45.550;12.070;2023-06-24T05:15:32;29.70;58.00
49148;DHT22;41980;45.550;12.070;2023-06-24T05:21:34;30.90;56.10
49148;DHT22;41980;45.550;12.070;2023-06-24T05:27:36;32.00;54.40
49148;DHT22;41980;45.550;12.070;2023-06-24T05:33:38;32.80;53.60
49148;DHT22;41980;45.550;12.070;2023-06-24T05:39:40;33.70;51.50
49148;DHT22;41980;45.550;12.070;2023-06-24T05:45:42;34.50;51.90
49148;DHT22;41980;45.550;12.070;2023-06-24T05:51:45;34.90;51.30
49148;DHT22;41980;45.550;12.070;2023-06-24T05:57:47;35.50;50.90
49148;DHT22;41980;45.550;12.070;2023-06-24T06:03:49;36.20;50.40
49148;DHT22;41980;45.550;12.070;2023-06-24T06:09:51;36.90;49.30
49148;DHT22;41980;45.550;12.070;2023-06-24T06:15:53;36.90;48.40
49148;DHT22;41980;45.550;12.070;2023-06-24T06:21:56;37.20;47.80
49148;DHT22;41980;45.550;12.070;2023-06-24T06:27:58;37.10;47.60
49148;DHT22;41980;45.550;12.070;2023-06-24T06:34:00;37.10;46.80
49148;DHT22;41980;45.550;12.070;2023-06-24T06:40:04;35.20;48.60
49148;DHT22;41980;45.550;12.070;2023-06-24T06:46:07;33.20;50.80
49148;DHT22;41980;45.550;12.070;2023-06-24T06:52:10;31.80;51.50
49148;DHT22;41980;45.550;12.070;2023-06-24T06:58:12;31.10;51.10
49148;DHT22;41980;45.550;12.070;2023-06-24T07:04:14;30.70;51.30
49148;DHT22;41980;45.550;12.070;2023-06-24T07:10:16;31.20;50.90
49148;DHT22;41980;45.550;12.070;2023-06-24T07:16:20;31.90;49.00
49148;DHT22;41980;45.550;12.070;2023-06-24T07:22:22;33.10;47.80
49148;DHT22;41980;45.550;12.070;2023-06-24T07:28:24;34.00;46.90
49148;DHT22;41980;45.550;12.070;2023-06-24T07:34:26;35.70;44.50
49148;DHT22;41980;45.550;12.070;2023-06-24T07:40:28;36.70;44.80
49148;DHT22;41980;45.550;12.070;2023-06-24T07:46:30;37.00;43.00
49148;DHT22;41980;45.550;12.070;2023-06-24T07:52:32;35.70;44.40
49148;DHT22;41980;45.550;12.070;2023-06-24T07:58:35;34.50;46.20
49148;DHT22;41980;45.550;12.070;2023-06-24T08:04:41;35.00;45.60
49148;DHT22;41980;45.550;12.070;2023-06-24T08:10:43;36.70;44.50
49148;DHT22;41980;45.550;12.070;2023-06-24T08:16:45;38.10;43.00
49148;DHT22;41980;45.550;12.070;2023-06-24T08:22:48;38.90;41.10
49148;DHT22;41980;45.550;12.070;2023-06-24T08:28:50;39.10;41.20
49148;DHT22;41980;45.550;12.070;2023-06-24T08:34:52;39.60;39.50
49148;DHT22;41980;45.550;12.070;2023-06-24T08:40:54;39.10;38.80
49148;DHT22;41980;45.550;12.070;2023-06-24T08:46:57;39.50;39.00
49148;DHT22;41980;45.550;12.070;2023-06-24T08:53:03;38.80;38.40
49148;DHT22;41980;45.550;12.070;2023-06-24T08:59:10;39.10;34.00
49148;DHT22;41980;45.550;12.070;2023-06-24T09:05:12;39.60;38.00
49148;DHT22;41980;45.550;12.070;2023-06-24T09:17:28;39.90;34.80
49148;DHT22;41980;45.550;12.070;2023-06-24T09:23:36;39.40;36.20
49148;DHT22;41980;45.550;12.070;2023-06-24T09:29:40;37.70;38.50
49148;DHT22;41980;45.550;12.070;2023-06-24T09:35:42;37.70;38.20
49148;DHT22;41980;45.550;12.070;2023-06-24T09:41:49;38.80;36.40
49148;DHT22;41980;45.550;12.070;2023-06-24T09:47:53;39.40;34.10
49148;DHT22;41980;45.550;12.070;2023-06-24T09:53:55;39.60;33.80
49148;DHT22;41980;45.550;12.070;2023-06-24T09:59:59;39.30;33.40
49148;DHT22;41980;45.550;12.070;2023-06-24T10:06:02;37.60;34.40
49148;DHT22;41980;45.550;12.070;2023-06-24T10:12:05;37.00;35.30
49148;DHT22;41980;45.550;12.070;2023-06-24T10:30:26;37.60;35.50
49148;DHT22;41980;45.550;12.070;2023-06-24T10:36:32;38.10;35.00
49148;DHT22;41980;45.550;12.070;2023-06-24T10:42:39;37.60;34.60
49148;DHT22;41980;45.550;12.070;2023-06-24T10:48:43;36.70;34.80
49148;DHT22;41980;45.550;12.070;2023-06-24T10:54:45;36.30;34.70
49148;DHT22;41980;45.550;12.070;2023-06-24T11:00:47;35.70;35.10
49148;DHT22;41980;45.550;12.070;2023-06-24T11:06:56;35.10;34.70
49148;DHT22;41980;45.550;12.070;2023-06-24T11:13:05;34.10;34.30
49148;DHT22;41980;45.550;12.070;2023-06-24T11:19:08;33.60;34.80
49148;DHT22;41980;45.550;12.070;2023-06-24T11:25:14;33.20;34.80
49148;DHT22;41980;45.550;12.070;2023-06-24T11:31:16;33.10;35.30
49148;DHT22;41980;45.550;12.070;2023-06-24T11:37:18;33.00;35.50
49148;DHT22;41980;45.550;12.070;2023-06-24T11:43:21;32.80;35.70
49148;DHT22;41980;45.550;12.070;2023-06-24T11:49:27;32.50;35.50
49148;DHT22;41980;45.550;12.070;2023-06-24T11:55:31;32.40;35.50
49148;DHT22;41980;45.550;12.070;2023-06-24T12:01:34;32.00;35.00
49148;DHT22;41980;45.550;12.070;2023-06-24T12:07:38;31.90;34.60
49148;DHT22;41980;45.550;12.070;2023-06-24T12:13:42;31.80;35.30
49148;DHT22;41980;45.550;12.070;2023-06-24T12:19:44;31.90;35.50
49148;DHT22;41980;45.550;12.070;2023-06-24T12:25:47;31.90;35.50
49148;DHT22;41980;45.550;12.070;2023-06-24T12:31:49;31.80;35.40
49148;DHT22;41980;45.550;12.070;2023-06-24T12:37:51;31.80;35.40
49148;DHT22;41980;45.550;12.070;2023-06-24T12:43:53;31.70;35.50
49148;DHT22;41980;45.550;12.070;2023-06-24T12:49:55;31.60;35.70
49148;DHT22;41980;45.550;12.070;2023-06-24T12:55:58;31.50;35.00
49148;DHT22;41980;45.550;12.070;2023-06-24T13:02:00;31.40;35.00
49148;DHT22;41980;45.550;12.070;2023-06-24T13:08:03;31.40;35.20
49148;DHT22;41980;45.550;12.070;2023-06-24T13:14:08;31.20;34.90
49148;DHT22;41980;45.550;12.070;2023-06-24T13:20:11;31.20;35.20
49148;DHT22;41980;45.550;12.070;2023-06-24T13:26:14;31.20;35.10
49148;DHT22;41980;45.550;12.070;2023-06-24T13:32:18;31.10;35.30
49148;DHT22;41980;45.550;12.070;2023-06-24T13:38:21;31.20;36.40
49148;DHT22;41980;45.550;12.070;2023-06-24T13:44:24;31.20;37.50
49148;DHT22;41980;45.550;12.070;2023-06-24T13:50:26;31.10;37.80
49148;DHT22;41980;45.550;12.070;2023-06-24T13:56:28;31.00;38.50
49148;DHT22;41980;45.550;12.070;2023-06-24T14:02:31;31.10;38.70
49148;DHT22;41980;45.550;12.070;2023-06-24T14:08:34;31.10;38.90
49148;DHT22;41980;45.550;12.070;2023-06-24T14:14:36;31.00;39.00
49148;DHT22;41980;45.550;12.070;2023-06-24T14:20:39;31.00;39.20
49148;DHT22;41980;45.550;12.070;2023-06-24T14:26:43;31.00;39.10
49148;DHT22;41980;45.550;12.070;2023-06-24T14:32:45;31.00;38.60
49148;DHT22;41980;45.550;12.070;2023-06-24T14:38:48;31.00;39.10
49148;DHT22;41980;45.550;12.070;2023-06-24T14:44:50;31.00;39.40
49148;DHT22;41980;45.550;12.070;2023-06-24T14:50:51;30.90;39.80
49148;DHT22;41980;45.550;12.070;2023-06-24T14:56:54;30.70;39.90
49148;DHT22;41980;45.550;12.070;2023-06-24T15:02:56;30.60;40.10
49148;DHT22;41980;45.550;12.070;2023-06-24T15:08:58;30.50;40.30
49148;DHT22;41980;45.550;12.070;2023-06-24T15:15:00;30.40;40.50
49148;DHT22;41980;45.550;12.070;2023-06-24T15:21:02;30.40;41.00
49148;DHT22;41980;45.550;12.070;2023-06-24T15:27:04;30.40;41.90
49148;DHT22;41980;45.550;12.070;2023-06-24T15:33:06;30.40;41.30
49148;DHT22;41980;45.550;12.070;2023-06-24T15:39:08;30.50;41.40
49148;DHT22;41980;45.550;12.070;2023-06-24T15:45:11;30.50;41.50
49148;DHT22;41980;45.550;12.070;2023-06-24T15:51:13;30.50;41.50
49148;DHT22;41980;45.550;12.070;2023-06-24T15:57:15;30.50;41.60
49148;DHT22;41980;45.550;12.070;2023-06-24T16:03:19;30.40;41.80
49148;DHT22;41980;45.550;12.070;2023-06-24T16:09:21;30.40;41.70
49148;DHT22;41980;45.550;12.070;2023-06-24T16:15:23;30.20;41.60
49148;DHT22;41980;45.550;12.070;2023-06-24T16:21:26;30.20;41.70
49148;DHT22;41980;45.550;12.070;2023-06-24T16:27:29;30.20;41.30
49148;DHT22;41980;45.550;12.070;2023-06-24T16:33:31;30.10;41.20
49148;DHT22;41980;45.550;12.070;2023-06-24T16:39:33;30.10;41.30
49148;DHT22;41980;45.550;12.070;2023-06-24T16:45:35;30.00;41.30
49148;DHT22;41980;45.550;12.070;2023-06-24T16:51:37;30.00;40.90
49148;DHT22;41980;45.550;12.070;2023-06-24T16:57:40;29.90;41.10
49148;DHT22;41980;45.550;12.070;2023-06-24T17:03:42;29.80;41.10
49148;DHT22;41980;45.550;12.070;2023-06-24T17:09:45;29.90;41.20
49148;DHT22;41980;45.550;12.070;2023-06-24T17:15:48;29.80;41.30
49148;DHT22;41980;45.550;12.070;2023-06-24T17:21:51;29.80;41.30
49148;DHT22;41980;45.550;12.070;2023-06-24T17:27:53;29.70;41.60
49148;DHT22;41980;45.550;12.070;2023-06-24T17:33:55;29.60;42.30
49148;DHT22;41980;45.550;12.070;2023-06-24T17:39:57;29.50;42.00
49148;DHT22;41980;45.550;12.070;2023-06-24T17:45:59;29.40;42.00
49148;DHT22;41980;45.550;12.070;2023-06-24T17:52:01;29.30;42.10
49148;DHT22;41980;45.550;12.070;2023-06-24T17:58:04;29.20;42.30
49148;DHT22;41980;45.550;12.070;2023-06-24T18:04:08;29.10;42.40
49148;DHT22;41980;45.550;12.070;2023-06-24T18:10:10;28.90;43.00
49148;DHT22;41980;45.550;12.070;2023-06-24T18:16:12;28.60;43.10
49148;DHT22;41980;45.550;12.070;2023-06-24T18:22:14;28.40;43.40
49148;DHT22;41980;45.550;12.070;2023-06-24T18:28:17;28.20;43.60
49148;DHT22;41980;45.550;12.070;2023-06-24T18:34:19;28.00;43.80
49148;DHT22;41980;45.550;12.070;2023-06-24T18:40:21;28.00;44.00
49148;DHT22;41980;45.550;12.070;2023-06-24T18:46:23;27.80;44.10
49148;DHT22;41980;45.550;12.070;2023-06-24T18:52:25;27.70;44.30
49148;DHT22;41980;45.550;12.070;2023-06-24T18:58:27;27.60;44.40
49148;DHT22;41980;45.550;12.070;2023-06-24T19:04:31;27.50;44.50
49148;DHT22;41980;45.550;12.070;2023-06-24T19:10:33;27.40;44.50
49148;DHT22;41980;45.550;12.070;2023-06-24T19:16:36;27.40;44.50
49148;DHT22;41980;45.550;12.070;2023-06-24T19:22:38;27.30;44.70
49148;DHT22;41980;45.550;12.070;2023-06-24T19:28:41;27.20;44.80
49148;DHT22;41980;45.550;12.070;2023-06-24T19:34:43;27.20;44.90
49148;DHT22;41980;45.550;12.070;2023-06-24T19:40:45;27.00;45.20
49148;DHT22;41980;45.550;12.070;2023-06-24T19:46:49;27.00;45.60
49148;DHT22;41980;45.550;12.070;2023-06-24T19:52:51;27.00;45.70
49148;DHT22;41980;45.550;12.070;2023-06-24T19:58:54;27.00;45.80
49148;DHT22;41980;45.550;12.070;2023-06-24T20:04:56;27.00;45.80
49148;DHT22;41980;45.550;12.070;2023-06-24T20:10:58;26.90;46.20
49148;DHT22;41980;45.550;12.070;2023-06-24T20:17:00;26.90;46.20
49148;DHT22;41980;45.550;12.070;2023-06-24T20:23:02;26.80;46.40
49148;DHT22;41980;45.550;12.070;2023-06-24T20:29:04;26.80;46.70
49148;DHT22;41980;45.550;12.070;2023-06-24T20:35:07;26.70;46.70
49148;DHT22;41980;45.550;12.070;2023-06-24T20:41:20;26.60;47.10
49148;DHT22;41980;45.550;12.070;2023-06-24T20:47:23;26.50;47.20
49148;DHT22;41980;45.550;12.070;2023-06-24T20:53:25;26.40;47.70
49148;DHT22;41980;45.550;12.070;2023-06-24T20:59:28;26.30;48.20
49148;DHT22;41980;45.550;12.070;2023-06-24T21:05:30;26.30;48.20
49148;DHT22;41980;45.550;12.070;2023-06-24T21:11:32;26.20;48.40
49148;DHT22;41980;45.550;12.070;2023-06-24T21:17:34;26.30;48.10
49148;DHT22;41980;45.550;12.070;2023-06-24T21:23:36;26.40;48.20
49148;DHT22;41980;45.550;12.070;2023-06-24T21:29:38;26.40;48.30
49148;DHT22;41980;45.550;12.070;2023-06-24T21:35:40;26.50;48.60
49148;DHT22;41980;45.550;12.070;2023-06-24T21:41:42;26.40;48.60
49148;DHT22;41980;45.550;12.070;2023-06-24T21:47:47;26.40;48.80
49148;DHT22;41980;45.550;12.070;2023-06-24T21:53:49;26.40;49.20
49148;DHT22;41980;45.550;12.070;2023-06-24T21:59:51;26.30;49.00
49148;DHT22;41980;45.550;12.070;2023-06-24T22:05:53;26.20;49.50
49148;DHT22;41980;45.550;12.070;2023-06-24T22:11:55;26.10;49.90
49148;DHT22;41980;45.550;12.070;2023-06-24T22:17:57;26.00;50.00
49148;DHT22;41980;45.550;12.070;2023-06-24T22:23:59;25.90;50.10
49148;DHT22;41980;45.550;12.070;2023-06-24T22:30:01;25.90;49.80
49148;DHT22;41980;45.550;12.070;2023-06-24T22:36:05;25.90;50.30
49148;DHT22;41980;45.550;12.070;2023-06-24T22:42:08;25.80;50.90
49148;DHT22;41980;45.550;12.070;2023-06-24T22:48:10;25.60;51.10
49148;DHT22;41980;45.550;12.070;2023-06-24T22:54:13;25.50;51.00
49148;DHT22;41980;45.550;12.070;2023-06-24T23:00:16;25.50;51.00
49148;DHT22;41980;45.550;12.070;2023-06-24T23:06:19;25.30;51.20
49148;DHT22;41980;45.550;12.070;2023-06-24T23:12:22;25.20;51.70
49148;DHT22;41980;45.550;12.070;2023-06-24T23:18:26;25.00;51.70
49148;DHT22;41980;45.550;12.070;2023-06-24T23:24:28;25.00;51.90
49148;DHT22;41980;45.550;12.070;2023-06-24T23:30:34;25.00;52.30
49148;DHT22;41980;45.550;12.070;2023-06-24T23:36:38;25.00;52.00
49148;DHT22;41980;45.550;12.070;2023-06-24T23:42:41;25.00;51.90
49148;DHT22;41980;45.550;12.070;2023-06-24T23:48:44;25.10;51.80
49148;DHT22;41980;45.550;12.070;2023-06-24T23:54:46;25.10;52.00
